sensor_id;sensor_type;location;lat;lon;timestamp;P1;durP1;ratioP1;P2;durP2;ratioP2
5026;SDS011;2532;52.480;13.354;2024-02-04T00:01:35;12.37;;;3.90;;
5026;SDS011;2532;52.480;13.354;2024-02-04T00:04:02;10.67;;;3.50;;
5026;SDS011;2532;52.480;13.354;2024-02-04T00:06:28;13.70;;;3.93;;
5026;SDS011;2532;52.480;13.354;2024-02-04T00:08:55;11.20;;;3.27;;
5026;SDS011;2532;52.480;13.354;2024-02-04T00:11:22;13.43;;;3.67;;
5026;SDS011;2532;52.480;13.354;2024-02-04T00:13:49;19.80;;;5.17;;
5026;SDS011;2532;52.480;13.354;2024-02-04T00:16:18;14.33;;;4.63;;
5026;SDS011;2532;52.480;13.354;2024-02-04T00:18:45;13.17;;;3.50;;
5026;SDS011;2532;52.480;13.354;2024-02-04T00:21:12;13.40;;;5.30;;
5026;SDS011;2532;52.480;13.354;2024-02-04T00:23:39;11.83;;;3.50;;
5026;SDS011;2532;52.480;13.354;2024-02-04T00:26:06;11.80;;;4.23;;
5026;SDS011;2532;52.480;13.354;2024-02-04T00:28:33;10.30;;;3.43;;
5026;SDS011;2532;52.480;13.354;2024-02-04T00:31:00;8.40;;;3.23;;
5026;SDS011;2532;52.480;13.354;2024-02-04T00:33:28;14.63;;;3.90;;
5026;SDS011;2532;52.480;13.354;2024-02-04T00:35:55;10.20;;;3.60;;
5026;SDS011;2532;52.480;13.354;2024-02-04T00:38:22;11.73;;;3.93;;
5026;SDS011;2532;52.480;13.354;2024-02-04T00:40:49;15.07;;;3.50;;
5026;SDS011;2532;52.480;13.354;2024-02-04T00:43:17;13.03;;;4.53;;
5026;SDS011;2532;52.480;13.354;2024-02-04T00:45:44;15.83;;;3.90;;
5026;SDS011;2532;52.480;13.354;2024-02-04T00:48:11;17.80;;;4.40;;
5026;SDS011;2532;52.480;13.354;2024-02-04T00:50:39;12.30;;;3.60;;
5026;SDS011;2532;52.480;13.354;2024-02-04T00:53:06;14.03;;;3.47;;
5026;SDS011;2532;52.480;13.354;2024-02-04T00:55:33;18.63;;;4.10;;
5026;SDS011;2532;52.480;13.354;2024-02-04T00:58:00;9.33;;;3.37;;
5026;SDS011;2532;52.480;13.354;2024-02-04T01:00:27;14.77;;;3.90;;
5026;SDS011;2532;52.480;13.354;2024-02-04T01:02:54;13.20;;;3.93;;
5026;SDS011;2532;52.480;13.354;2024-02-04T01:05:21;9.43;;;3.73;;
5026;SDS011;2532;52.480;13.354;2024-02-04T01:07:49;16.10;;;4.20;;
5026;SDS011;2532;52.480;13.354;2024-02-04T01:10:16;13.00;;;3.83;;
5026;SDS011;2532;52.480;13.354;2024-02-04T01:12:43;13.90;;;3.57;;
5026;SDS011;2532;52.480;13.354;2024-02-04T01:15:10;12.83;;;3.60;;
5026;SDS011;2532;52.480;13.354;2024-02-04T01:17:37;11.83;;;3.77;;
5026;SDS011;2532;52.480;13.354;2024-02-04T01:20:05;14.43;;;4.10;;
5026;SDS011;2532;52.480;13.354;2024-02-04T01:22:33;17.63;;;4.07;;
5026;SDS011;2532;52.480;13.354;2024-02-04T01:25:02;12.10;;;3.63;;
5026;SDS011;2532;52.480;13.354;2024-02-04T01:27:29;12.40;;;3.80;;
5026;SDS011;2532;52.480;13.354;2024-02-04T01:29:56;10.37;;;4.50;;
5026;SDS011;2532;52.480;13.354;2024-02-04T01:32:23;13.67;;;4.17;;
5026;SDS011;2532;52.480;13.354;2024-02-04T01:34:50;15.20;;;4.20;;
5026;SDS011;2532;52.480;13.354;2024-02-04T01:37:17;11.90;;;3.87;;
5026;SDS011;2532;52.480;13.354;2024-02-04T01:39:44;15.03;;;5.20;;
5026;SDS011;2532;52.480;13.354;2024-02-04T01:42:12;15.63;;;4.10;;
5026;SDS011;2532;52.480;13.354;2024-02-04T01:44:39;17.70;;;4.30;;
5026;SDS011;2532;52.480;13.354;2024-02-04T01:47:07;12.43;;;3.40;;
5026;SDS011;2532;52.480;13.354;2024-02-04T01:49:34;22.17;;;3.77;;
5026;SDS011;2532;52.480;13.354;2024-02-04T01:52:01;10.90;;;3.60;;
5026;SDS011;2532;52.480;13.354;2024-02-04T01:54:29;13.80;;;4.90;;
5026;SDS011;2532;52.480;13.354;2024-02-04T01:56:58;15.33;;;3.60;;
5026;SDS011;2532;52.480;13.354;2024-02-04T01:59:27;13.00;;;3.60;;
5026;SDS011;2532;52.480;13.354;2024-02-04T02:01:56;12.27;;;3.57;;
5026;SDS011;2532;52.480;13.354;2024-02-04T02:04:23;17.30;;;4.60;;
5026;SDS011;2532;52.480;13.354;2024-02-04T02:06:51;15.63;;;3.80;;
5026;SDS011;2532;52.480;13.354;2024-02-04T02:09:18;10.37;;;3.50;;
5026;SDS011;2532;52.480;13.354;2024-02-04T02:11:47;7.33;;;3.17;;
5026;SDS011;2532;52.480;13.354;2024-02-04T02:14:18;16.50;;;4.10;;
5026;SDS011;2532;52.480;13.354;2024-02-04T02:16:51;11.63;;;3.47;;
5026;SDS011;2532;52.480;13.354;2024-02-04T02:19:35;18.90;;;4.10;;
5026;SDS011;2532;52.480;13.354;2024-02-04T02:22:14;13.73;;;3.97;;
5026;SDS011;2532;52.480;13.354;2024-02-04T02:24:52;11.67;;;3.57;;
5026;SDS011;2532;52.480;13.354;2024-02-04T02:27:22;17.63;;;4.00;;
5026;SDS011;2532;52.480;13.354;2024-02-04T02:29:49;17.47;;;4.77;;
5026;SDS011;2532;52.480;13.354;2024-02-04T02:32:16;13.77;;;4.23;;
5026;SDS011;2532;52.480;13.354;2024-02-04T02:34:44;12.50;;;3.30;;
5026;SDS011;2532;52.480;13.354;2024-02-04T02:37:15;8.97;;;3.57;;
5026;SDS011;2532;52.480;13.354;2024-02-04T02:39:48;7.77;;;3.37;;
5026;SDS011;2532;52.480;13.354;2024-02-04T02:42:22;10.40;;;3.93;;
5026;SDS011;2532;52.480;13.354;2024-02-04T02:44:51;13.17;;;3.57;;
5026;SDS011;2532;52.480;13.354;2024-02-04T02:47:20;12.03;;;3.77;;
5026;SDS011;2532;52.480;13.354;2024-02-04T02:49:50;24.30;;;4.30;;
5026;SDS011;2532;52.480;13.354;2024-02-04T02:52:19;11.07;;;3.43;;
5026;SDS011;2532;52.480;13.354;2024-02-04T02:54:46;11.40;;;4.10;;
5026;SDS011;2532;52.480;13.354;2024-02-04T02:57:13;14.27;;;3.37;;
5026;SDS011;2532;52.480;13.354;2024-02-04T02:59:41;15.33;;;4.00;;
5026;SDS011;2532;52.480;13.354;2024-02-04T03:02:08;11.33;;;3.53;;
5026;SDS011;2532;52.480;13.354;2024-02-04T03:04:36;8.00;;;3.27;;
5026;SDS011;2532;52.480;13.354;2024-02-04T03:07:03;10.33;;;4.00;;
5026;SDS011;2532;52.480;13.354;2024-02-04T03:09:32;14.57;;;4.70;;
5026;SDS011;2532;52.480;13.354;2024-02-04T03:11:59;10.87;;;4.60;;
5026;SDS011;2532;52.480;13.354;2024-02-04T03:14:26;14.10;;;4.40;;
5026;SDS011;2532;52.480;13.354;2024-02-04T03:16:54;14.93;;;4.00;;
5026;SDS011;2532;52.480;13.354;2024-02-04T03:19:21;9.20;;;4.00;;
5026;SDS011;2532;52.480;13.354;2024-02-04T03:21:48;10.83;;;4.60;;
5026;SDS011;2532;52.480;13.354;2024-02-04T03:24:15;11.80;;;3.87;;
5026;SDS011;2532;52.480;13.354;2024-02-04T03:26:42;10.50;;;4.23;;
5026;SDS011;2532;52.480;13.354;2024-02-04T03:29:09;12.10;;;4.30;;
5026;SDS011;2532;52.480;13.354;2024-02-04T03:31:36;15.07;;;5.20;;
5026;SDS011;2532;52.480;13.354;2024-02-04T03:34:04;13.90;;;4.27;;
5026;SDS011;2532;52.480;13.354;2024-02-04T03:36:31;12.03;;;3.83;;
5026;SDS011;2532;52.480;13.354;2024-02-04T03:38:58;17.33;;;4.17;;
5026;SDS011;2532;52.480;13.354;2024-02-04T03:41:25;10.13;;;4.13;;
5026;SDS011;2532;52.480;13.354;2024-02-04T03:43:51;14.83;;;4.73;;
5026;SDS011;2532;52.480;13.354;2024-02-04T03:46:20;10.03;;;4.23;;
5026;SDS011;2532;52.480;13.354;2024-02-04T03:48:47;5.50;;;3.80;;
5026;SDS011;2532;52.480;13.354;2024-02-04T03:51:16;11.13;;;3.53;;
5026;SDS011;2532;52.480;13.354;2024-02-04T03:53:44;14.70;;;4.20;;
5026;SDS011;2532;52.480;13.354;2024-02-04T03:56:10;13.13;;;4.50;;
5026;SDS011;2532;52.480;13.354;2024-02-04T03:58:37;9.23;;;4.20;;
5026;SDS011;2532;52.480;13.354;2024-02-04T04:01:04;9.90;;;4.30;;
5026;SDS011;2532;52.480;13.354;2024-02-04T04:03:31;7.53;;;3.53;;
5026;SDS011;2532;52.480;13.354;2024-02-04T04:05:58;13.67;;;3.70;;
5026;SDS011;2532;52.480;13.354;2024-02-04T04:08:27;14.10;;;4.60;;
5026;SDS011;2532;52.480;13.354;2024-02-04T04:10:53;16.47;;;3.87;;
5026;SDS011;2532;52.480;13.354;2024-02-04T04:13:20;9.80;;;3.53;;
5026;SDS011;2532;52.480;13.354;2024-02-04T04:15:47;11.23;;;4.27;;
5026;SDS011;2532;52.480;13.354;2024-02-04T04:18:14;5.37;;;3.03;;
5026;SDS011;2532;52.480;13.354;2024-02-04T04:20:41;10.60;;;3.90;;
5026;SDS011;2532;52.480;13.354;2024-02-04T04:23:08;12.00;;;3.90;;
5026;SDS011;2532;52.480;13.354;2024-02-04T04:25:36;10.87;;;3.73;;
5026;SDS011;2532;52.480;13.354;2024-02-04T04:28:03;7.40;;;3.47;;
5026;SDS011;2532;52.480;13.354;2024-02-04T04:30:31;9.93;;;3.30;;
5026;SDS011;2532;52.480;13.354;2024-02-04T04:32:57;14.43;;;3.30;;
5026;SDS011;2532;52.480;13.354;2024-02-04T04:35:25;8.50;;;2.97;;
5026;SDS011;2532;52.480;13.354;2024-02-04T04:37:52;8.30;;;2.97;;
5026;SDS011;2532;52.480;13.354;2024-02-04T04:40:18;8.50;;;4.03;;
5026;SDS011;2532;52.480;13.354;2024-02-04T04:42:47;7.83;;;3.40;;
5026;SDS011;2532;52.480;13.354;2024-02-04T04:45:14;9.57;;;3.97;;
5026;SDS011;2532;52.480;13.354;2024-02-04T04:47:41;7.93;;;4.10;;
5026;SDS011;2532;52.480;13.354;2024-02-04T04:50:08;6.80;;;3.53;;
5026;SDS011;2532;52.480;13.354;2024-02-04T04:52:35;11.53;;;3.90;;
5026;SDS011;2532;52.480;13.354;2024-02-04T04:55:02;19.03;;;4.00;;
5026;SDS011;2532;52.480;13.354;2024-02-04T04:57:29;10.90;;;4.20;;
5026;SDS011;2532;52.480;13.354;2024-02-04T04:59:57;13.73;;;3.87;;
5026;SDS011;2532;52.480;13.354;2024-02-04T05:02:29;11.67;;;3.20;;
5026;SDS011;2532;52.480;13.354;2024-02-04T05:04:55;17.93;;;3.60;;
5026;SDS011;2532;52.480;13.354;2024-02-04T05:07:22;8.47;;;3.67;;
5026;SDS011;2532;52.480;13.354;2024-02-04T05:09:51;11.47;;;2.90;;
5026;SDS011;2532;52.480;13.354;2024-02-04T05:12:18;9.07;;;4.20;;
5026;SDS011;2532;52.480;13.354;2024-02-04T05:14:45;16.53;;;2.60;;
5026;SDS011;2532;52.480;13.354;2024-02-04T05:17:13;6.70;;;2.37;;
5026;SDS011;2532;52.480;13.354;2024-02-04T05:19:40;5.70;;;2.93;;
5026;SDS011;2532;52.480;13.354;2024-02-04T05:22:08;16.00;;;3.30;;
5026;SDS011;2532;52.480;13.354;2024-02-04T05:24:34;6.40;;;3.07;;
5026;SDS011;2532;52.480;13.354;2024-02-04T05:27:02;6.97;;;3.30;;
5026;SDS011;2532;52.480;13.354;2024-02-04T05:29:30;12.43;;;3.27;;
5026;SDS011;2532;52.480;13.354;2024-02-04T05:31:56;8.43;;;2.70;;
5026;SDS011;2532;52.480;13.354;2024-02-04T05:34:25;11.07;;;3.27;;
5026;SDS011;2532;52.480;13.354;2024-02-04T05:36:52;12.80;;;3.67;;
5026;SDS011;2532;52.480;13.354;2024-02-04T05:39:19;10.50;;;3.67;;
5026;SDS011;2532;52.480;13.354;2024-02-04T05:41:48;9.13;;;2.93;;
5026;SDS011;2532;52.480;13.354;2024-02-04T05:44:15;8.40;;;3.00;;
5026;SDS011;2532;52.480;13.354;2024-02-04T05:46:42;9.47;;;3.30;;
5026;SDS011;2532;52.480;13.354;2024-02-04T05:49:09;9.40;;;3.20;;
5026;SDS011;2532;52.480;13.354;2024-02-04T05:51:39;8.03;;;3.37;;
5026;SDS011;2532;52.480;13.354;2024-02-04T05:54:07;7.77;;;2.60;;
5026;SDS011;2532;52.480;13.354;2024-02-04T05:56:34;3.83;;;2.30;;
5026;SDS011;2532;52.480;13.354;2024-02-04T05:59:01;6.83;;;3.30;;
5026;SDS011;2532;52.480;13.354;2024-02-04T06:01:28;9.80;;;3.90;;
5026;SDS011;2532;52.480;13.354;2024-02-04T06:03:55;5.00;;;2.93;;
5026;SDS011;2532;52.480;13.354;2024-02-04T06:06:22;9.40;;;3.70;;
5026;SDS011;2532;52.480;13.354;2024-02-04T06:08:51;7.87;;;3.47;;
5026;SDS011;2532;52.480;13.354;2024-02-04T06:11:18;12.87;;;3.87;;
5026;SDS011;2532;52.480;13.354;2024-02-04T06:13:45;13.00;;;3.67;;
5026;SDS011;2532;52.480;13.354;2024-02-04T06:16:13;7.00;;;3.60;;
5026;SDS011;2532;52.480;13.354;2024-02-04T06:18:39;7.40;;;3.20;;
5026;SDS011;2532;52.480;13.354;2024-02-04T06:21:06;9.50;;;3.57;;
5026;SDS011;2532;52.480;13.354;2024-02-04T06:23:34;8.93;;;3.73;;
5026;SDS011;2532;52.480;13.354;2024-02-04T06:26:02;8.53;;;3.87;;
5026;SDS011;2532;52.480;13.354;2024-02-04T06:28:30;10.10;;;4.00;;
5026;SDS011;2532;52.480;13.354;2024-02-04T06:30:59;18.37;;;3.73;;
5026;SDS011;2532;52.480;13.354;2024-02-04T06:33:26;9.80;;;3.80;;
5026;SDS011;2532;52.480;13.354;2024-02-04T06:35:53;9.70;;;3.70;;
5026;SDS011;2532;52.480;13.354;2024-02-04T06:38:21;11.50;;;4.27;;
5026;SDS011;2532;52.480;13.354;2024-02-04T06:40:48;10.37;;;3.70;;
5026;SDS011;2532;52.480;13.354;2024-02-04T06:43:16;8.90;;;4.23;;
5026;SDS011;2532;52.480;13.354;2024-02-04T06:45:43;6.40;;;4.00;;
5026;SDS011;2532;52.480;13.354;2024-02-04T06:48:10;11.57;;;4.60;;
5026;SDS011;2532;52.480;13.354;2024-02-04T06:50:39;14.40;;;5.10;;
5026;SDS011;2532;52.480;13.354;2024-02-04T06:53:06;9.03;;;4.63;;
5026;SDS011;2532;52.480;13.354;2024-02-04T06:55:32;13.27;;;5.43;;
5026;SDS011;2532;52.480;13.354;2024-02-04T06:57:59;8.00;;;4.30;;
5026;SDS011;2532;52.480;13.354;2024-02-04T07:00:27;11.23;;;5.07;;
5026;SDS011;2532;52.480;13.354;2024-02-04T07:02:55;10.33;;;5.10;;
5026;SDS011;2532;52.480;13.354;2024-02-04T07:05:22;16.63;;;4.57;;
5026;SDS011;2532;52.480;13.354;2024-02-04T07:07:50;9.40;;;4.97;;
5026;SDS011;2532;52.480;13.354;2024-02-04T07:10:17;10.50;;;5.33;;
5026;SDS011;2532;52.480;13.354;2024-02-04T07:12:44;11.43;;;5.03;;
5026;SDS011;2532;52.480;13.354;2024-02-04T07:15:11;13.00;;;5.43;;
5026;SDS011;2532;52.480;13.354;2024-02-04T07:17:40;8.53;;;4.77;;
5026;SDS011;2532;52.480;13.354;2024-02-04T07:20:07;13.30;;;5.30;;
5026;SDS011;2532;52.480;13.354;2024-02-04T07:22:34;8.53;;;4.50;;
5026;SDS011;2532;52.480;13.354;2024-02-04T07:25:01;8.30;;;4.00;;
5026;SDS011;2532;52.480;13.354;2024-02-04T07:27:31;12.33;;;6.30;;
5026;SDS011;2532;52.480;13.354;2024-02-04T07:29:58;12.30;;;5.00;;
5026;SDS011;2532;52.480;13.354;2024-02-04T07:32:25;11.50;;;5.00;;
5026;SDS011;2532;52.480;13.354;2024-02-04T07:34:53;9.60;;;4.60;;
5026;SDS011;2532;52.480;13.354;2024-02-04T07:37:20;17.37;;;5.20;;
5026;SDS011;2532;52.480;13.354;2024-02-04T07:39:48;13.23;;;5.03;;
5026;SDS011;2532;52.480;13.354;2024-02-04T07:42:14;10.43;;;5.20;;
5026;SDS011;2532;52.480;13.354;2024-02-04T07:44:41;8.67;;;4.63;;
5026;SDS011;2532;52.480;13.354;2024-02-04T07:47:08;9.50;;;4.53;;
5026;SDS011;2532;52.480;13.354;2024-02-04T07:49:36;11.73;;;4.83;;
5026;SDS011;2532;52.480;13.354;2024-02-04T07:52:05;13.47;;;5.03;;
5026;SDS011;2532;52.480;13.354;2024-02-04T07:54:32;9.40;;;5.40;;
5026;SDS011;2532;52.480;13.354;2024-02-04T07:56:59;8.27;;;4.23;;
5026;SDS011;2532;52.480;13.354;2024-02-04T07:59:26;11.43;;;5.00;;
5026;SDS011;2532;52.480;13.354;2024-02-04T08:01:53;10.73;;;5.17;;
5026;SDS011;2532;52.480;13.354;2024-02-04T08:04:20;14.90;;;4.97;;
5026;SDS011;2532;52.480;13.354;2024-02-04T08:06:47;9.40;;;5.00;;
5026;SDS011;2532;52.480;13.354;2024-02-04T08:09:15;14.40;;;5.40;;
5026;SDS011;2532;52.480;13.354;2024-02-04T08:11:42;10.80;;;5.17;;
5026;SDS011;2532;52.480;13.354;2024-02-04T08:14:09;11.17;;;4.60;;
5026;SDS011;2532;52.480;13.354;2024-02-04T08:16:35;10.60;;;5.17;;
5026;SDS011;2532;52.480;13.354;2024-02-04T08:19:02;13.70;;;5.17;;
5026;SDS011;2532;52.480;13.354;2024-02-04T08:21:31;14.53;;;5.47;;
5026;SDS011;2532;52.480;13.354;2024-02-04T08:23:58;13.63;;;4.40;;
5026;SDS011;2532;52.480;13.354;2024-02-04T08:26:27;9.50;;;4.07;;
5026;SDS011;2532;52.480;13.354;2024-02-04T08:28:53;10.47;;;4.33;;
5026;SDS011;2532;52.480;13.354;2024-02-04T08:31:20;10.37;;;4.70;;
5026;SDS011;2532;52.480;13.354;2024-02-04T08:33:47;10.43;;;4.00;;
5026;SDS011;2532;52.480;13.354;2024-02-04T08:36:14;7.07;;;4.10;;
5026;SDS011;2532;52.480;13.354;2024-02-04T08:38:41;14.47;;;4.13;;
5026;SDS011;2532;52.480;13.354;2024-02-04T08:41:08;9.13;;;4.00;;
5026;SDS011;2532;52.480;13.354;2024-02-04T08:43:37;11.00;;;4.07;;
5026;SDS011;2532;52.480;13.354;2024-02-04T08:46:04;12.43;;;4.50;;
5026;SDS011;2532;52.480;13.354;2024-02-04T08:48:31;9.77;;;3.67;;
5026;SDS011;2532;52.480;13.354;2024-02-04T08:50:58;5.17;;;3.77;;
5026;SDS011;2532;52.480;13.354;2024-02-04T08:53:25;12.40;;;3.30;;
5026;SDS011;2532;52.480;13.354;2024-02-04T08:55:52;9.70;;;3.90;;
5026;SDS011;2532;52.480;13.354;2024-02-04T08:58:19;12.50;;;3.97;;
5026;SDS011;2532;52.480;13.354;2024-02-04T09:00:47;10.80;;;3.20;;
5026;SDS011;2532;52.480;13.354;2024-02-04T09:03:14;17.27;;;3.60;;
5026;SDS011;2532;52.480;13.354;2024-02-04T09:05:41;10.60;;;3.57;;
5026;SDS011;2532;52.480;13.354;2024-02-04T09:08:08;6.63;;;3.27;;
5026;SDS011;2532;52.480;13.354;2024-02-04T09:10:36;14.00;;;4.10;;
5026;SDS011;2532;52.480;13.354;2024-02-04T09:13:03;18.60;;;4.00;;
5026;SDS011;2532;52.480;13.354;2024-02-04T09:15:30;8.20;;;3.67;;
5026;SDS011;2532;52.480;13.354;2024-02-04T09:17:58;12.47;;;3.37;;
5026;SDS011;2532;52.480;13.354;2024-02-04T09:20:25;12.80;;;3.20;;
5026;SDS011;2532;52.480;13.354;2024-02-04T09:22:52;12.50;;;2.93;;
5026;SDS011;2532;52.480;13.354;2024-02-04T09:25:19;10.60;;;3.97;;
5026;SDS011;2532;52.480;13.354;2024-02-04T09:27:46;9.30;;;3.43;;
5026;SDS011;2532;52.480;13.354;2024-02-04T09:30:13;7.60;;;3.73;;
5026;SDS011;2532;52.480;13.354;2024-02-04T09:32:40;11.50;;;3.97;;
5026;SDS011;2532;52.480;13.354;2024-02-04T09:35:09;13.60;;;3.30;;
5026;SDS011;2532;52.480;13.354;2024-02-04T09:37:36;14.13;;;3.57;;
5026;SDS011;2532;52.480;13.354;2024-02-04T09:40:03;8.53;;;2.97;;
5026;SDS011;2532;52.480;13.354;2024-02-04T09:42:31;12.13;;;2.90;;
5026;SDS011;2532;52.480;13.354;2024-02-04T09:44:58;7.60;;;3.07;;
5026;SDS011;2532;52.480;13.354;2024-02-04T09:47:25;14.30;;;3.00;;
5026;SDS011;2532;52.480;13.354;2024-02-04T09:49:53;5.00;;;2.70;;
5026;SDS011;2532;52.480;13.354;2024-02-04T09:52:24;10.17;;;3.57;;
5026;SDS011;2532;52.480;13.354;2024-02-04T09:54:55;11.90;;;2.70;;
5026;SDS011;2532;52.480;13.354;2024-02-04T09:57:25;6.97;;;2.80;;
5026;SDS011;2532;52.480;13.354;2024-02-04T09:59:52;10.80;;;3.27;;
5026;SDS011;2532;52.480;13.354;2024-02-04T10:02:19;9.50;;;3.37;;
5026;SDS011;2532;52.480;13.354;2024-02-04T10:04:47;7.33;;;2.53;;
5026;SDS011;2532;52.480;13.354;2024-02-04T10:07:14;7.87;;;2.90;;
5026;SDS011;2532;52.480;13.354;2024-02-04T10:09:44;5.90;;;2.70;;
5026;SDS011;2532;52.480;13.354;2024-02-04T10:12:12;6.77;;;2.70;;
5026;SDS011;2532;52.480;13.354;2024-02-04T10:14:38;13.37;;;2.83;;
5026;SDS011;2532;52.480;13.354;2024-02-04T10:17:05;11.03;;;3.53;;
5026;SDS011;2532;52.480;13.354;2024-02-04T10:19:33;10.20;;;3.13;;
5026;SDS011;2532;52.480;13.354;2024-02-04T10:22:00;7.97;;;3.17;;
5026;SDS011;2532;52.480;13.354;2024-02-04T10:24:29;7.00;;;2.63;;
5026;SDS011;2532;52.480;13.354;2024-02-04T10:26:57;6.30;;;2.60;;
5026;SDS011;2532;52.480;13.354;2024-02-04T10:29:24;14.43;;;2.40;;
5026;SDS011;2532;52.480;13.354;2024-02-04T10:31:53;8.00;;;3.07;;
5026;SDS011;2532;52.480;13.354;2024-02-04T10:34:25;9.10;;;2.43;;
5026;SDS011;2532;52.480;13.354;2024-02-04T10:36:52;7.80;;;2.43;;
5026;SDS011;2532;52.480;13.354;2024-02-04T10:39:19;5.93;;;2.60;;
5026;SDS011;2532;52.480;13.354;2024-02-04T10:41:48;6.10;;;2.40;;
5026;SDS011;2532;52.480;13.354;2024-02-04T10:44:20;6.20;;;2.43;;
5026;SDS011;2532;52.480;13.354;2024-02-04T10:46:49;6.80;;;2.50;;
5026;SDS011;2532;52.480;13.354;2024-02-04T10:49:19;6.40;;;2.50;;
5026;SDS011;2532;52.480;13.354;2024-02-04T10:51:46;4.47;;;2.43;;
5026;SDS011;2532;52.480;13.354;2024-02-04T10:54:14;12.53;;;3.20;;
5026;SDS011;2532;52.480;13.354;2024-02-04T10:56:43;7.00;;;2.23;;
5026;SDS011;2532;52.480;13.354;2024-02-04T10:59:11;9.77;;;3.10;;
5026;SDS011;2532;52.480;13.354;2024-02-04T11:01:44;8.00;;;4.03;;
5026;SDS011;2532;52.480;13.354;2024-02-04T11:04:13;8.70;;;2.70;;
5026;SDS011;2532;52.480;13.354;2024-02-04T11:06:42;5.47;;;2.50;;
5026;SDS011;2532;52.480;13.354;2024-02-04T11:09:11;14.23;;;4.20;;
5026;SDS011;2532;52.480;13.354;2024-02-04T11:11:39;12.80;;;5.70;;
5026;SDS011;2532;52.480;13.354;2024-02-04T11:14:08;10.90;;;6.10;;
5026;SDS011;2532;52.480;13.354;2024-02-04T11:16:44;15.60;;;6.47;;
5026;SDS011;2532;52.480;13.354;2024-02-04T11:19:37;12.17;;;4.90;;
5026;SDS011;2532;52.480;13.354;2024-02-04T11:22:17;13.87;;;3.20;;
5026;SDS011;2532;52.480;13.354;2024-02-04T11:24:58;9.80;;;2.97;;
5026;SDS011;2532;52.480;13.354;2024-02-04T11:27:43;10.47;;;5.87;;
5026;SDS011;2532;52.480;13.354;2024-02-04T11:30:11;9.60;;;4.10;;
5026;SDS011;2532;52.480;13.354;2024-02-04T11:32:41;8.90;;;4.00;;
5026;SDS011;2532;52.480;13.354;2024-02-04T11:35:08;10.53;;;3.90;;
5026;SDS011;2532;52.480;13.354;2024-02-04T11:37:36;7.77;;;3.43;;
5026;SDS011;2532;52.480;13.354;2024-02-04T11:40:07;9.73;;;3.07;;
5026;SDS011;2532;52.480;13.354;2024-02-04T11:42:41;9.70;;;2.97;;
5026;SDS011;2532;52.480;13.354;2024-02-04T11:45:08;8.90;;;3.27;;
5026;SDS011;2532;52.480;13.354;2024-02-04T11:47:36;8.70;;;4.20;;
5026;SDS011;2532;52.480;13.354;2024-02-04T11:50:06;10.93;;;4.93;;
5026;SDS011;2532;52.480;13.354;2024-02-04T11:52:35;6.83;;;3.30;;
5026;SDS011;2532;52.480;13.354;2024-02-04T11:55:02;5.00;;;3.00;;
5026;SDS011;2532;52.480;13.354;2024-02-04T11:57:32;9.00;;;3.03;;
5026;SDS011;2532;52.480;13.354;2024-02-04T11:59:59;7.70;;;3.40;;
5026;SDS011;2532;52.480;13.354;2024-02-04T12:02:30;8.37;;;3.63;;
5026;SDS011;2532;52.480;13.354;2024-02-04T12:04:57;9.70;;;3.20;;
5026;SDS011;2532;52.480;13.354;2024-02-04T12:07:28;4.83;;;3.23;;
5026;SDS011;2532;52.480;13.354;2024-02-04T12:09:54;12.00;;;4.00;;
5026;SDS011;2532;52.480;13.354;2024-02-04T12:12:22;7.53;;;3.60;;
5026;SDS011;2532;52.480;13.354;2024-02-04T12:14:50;10.13;;;3.50;;
5026;SDS011;2532;52.480;13.354;2024-02-04T12:17:18;6.07;;;3.43;;
5026;SDS011;2532;52.480;13.354;2024-02-04T12:19:46;8.60;;;4.30;;
5026;SDS011;2532;52.480;13.354;2024-02-04T12:22:15;9.37;;;2.80;;
5026;SDS011;2532;52.480;13.354;2024-02-04T12:24:43;9.60;;;3.00;;
5026;SDS011;2532;52.480;13.354;2024-02-04T12:27:15;9.57;;;3.73;;
5026;SDS011;2532;52.480;13.354;2024-02-04T12:29:42;5.53;;;3.10;;
5026;SDS011;2532;52.480;13.354;2024-02-04T12:32:09;6.87;;;3.00;;
5026;SDS011;2532;52.480;13.354;2024-02-04T12:34:40;8.70;;;3.17;;
5026;SDS011;2532;52.480;13.354;2024-02-04T12:37:07;8.57;;;3.17;;
5026;SDS011;2532;52.480;13.354;2024-02-04T12:39:34;9.97;;;2.67;;
5026;SDS011;2532;52.480;13.354;2024-02-04T12:42:02;6.00;;;3.10;;
5026;SDS011;2532;52.480;13.354;2024-02-04T12:44:30;8.00;;;3.03;;
5026;SDS011;2532;52.480;13.354;2024-02-04T12:46:57;7.10;;;2.77;;
5026;SDS011;2532;52.480;13.354;2024-02-04T12:49:24;12.20;;;3.40;;
5026;SDS011;2532;52.480;13.354;2024-02-04T12:51:52;8.47;;;3.00;;
5026;SDS011;2532;52.480;13.354;2024-02-04T12:54:21;9.70;;;3.07;;
5026;SDS011;2532;52.480;13.354;2024-02-04T12:56:49;11.37;;;2.97;;
5026;SDS011;2532;52.480;13.354;2024-02-04T12:59:27;12.00;;;3.27;;
5026;SDS011;2532;52.480;13.354;2024-02-04T13:01:56;6.70;;;2.30;;
5026;SDS011;2532;52.480;13.354;2024-02-04T13:04:24;7.73;;;2.80;;
5026;SDS011;2532;52.480;13.354;2024-02-04T13:06:51;8.87;;;2.87;;
5026;SDS011;2532;52.480;13.354;2024-02-04T13:09:18;9.43;;;3.67;;
5026;SDS011;2532;52.480;13.354;2024-02-04T13:11:46;12.00;;;3.13;;
5026;SDS011;2532;52.480;13.354;2024-02-04T13:14:13;12.30;;;4.10;;
5026;SDS011;2532;52.480;13.354;2024-02-04T13:16:42;6.37;;;2.53;;
5026;SDS011;2532;52.480;13.354;2024-02-04T13:19:09;7.83;;;3.10;;
5026;SDS011;2532;52.480;13.354;2024-02-04T13:21:36;11.23;;;3.83;;
5026;SDS011;2532;52.480;13.354;2024-02-04T13:24:03;7.60;;;3.73;;
5026;SDS011;2532;52.480;13.354;2024-02-04T13:26:31;14.90;;;3.77;;
5026;SDS011;2532;52.480;13.354;2024-02-04T13:28:57;10.43;;;3.60;;
5026;SDS011;2532;52.480;13.354;2024-02-04T13:31:25;9.30;;;3.70;;
5026;SDS011;2532;52.480;13.354;2024-02-04T13:33:54;9.67;;;3.80;;
5026;SDS011;2532;52.480;13.354;2024-02-04T13:36:21;8.17;;;2.93;;
5026;SDS011;2532;52.480;13.354;2024-02-04T13:38:49;11.43;;;3.63;;
5026;SDS011;2532;52.480;13.354;2024-02-04T13:41:16;8.93;;;4.70;;
5026;SDS011;2532;52.480;13.354;2024-02-04T13:43:43;9.63;;;3.57;;
5026;SDS011;2532;52.480;13.354;2024-02-04T13:46:10;10.43;;;3.10;;
5026;SDS011;2532;52.480;13.354;2024-02-04T13:48:37;12.60;;;3.00;;
5026;SDS011;2532;52.480;13.354;2024-02-04T13:51:06;7.07;;;3.83;;
5026;SDS011;2532;52.480;13.354;2024-02-04T13:53:33;12.03;;;3.80;;
5026;SDS011;2532;52.480;13.354;2024-02-04T13:56:00;10.77;;;4.07;;
5026;SDS011;2532;52.480;13.354;2024-02-04T13:58:27;11.13;;;2.53;;
5026;SDS011;2532;52.480;13.354;2024-02-04T14:00:54;8.57;;;3.03;;
5026;SDS011;2532;52.480;13.354;2024-02-04T14:03:22;7.73;;;3.43;;
5026;SDS011;2532;52.480;13.354;2024-02-04T14:05:49;10.20;;;3.07;;
5026;SDS011;2532;52.480;13.354;2024-02-04T14:08:18;7.90;;;3.40;;
5026;SDS011;2532;52.480;13.354;2024-02-04T14:10:45;8.20;;;3.20;;
5026;SDS011;2532;52.480;13.354;2024-02-04T14:13:12;12.50;;;3.53;;
5026;SDS011;2532;52.480;13.354;2024-02-04T14:15:39;9.17;;;2.97;;
5026;SDS011;2532;52.480;13.354;2024-02-04T14:18:06;8.43;;;3.60;;
5026;SDS011;2532;52.480;13.354;2024-02-04T14:20:33;8.13;;;3.23;;
5026;SDS011;2532;52.480;13.354;2024-02-04T14:23:00;9.93;;;4.00;;
5026;SDS011;2532;52.480;13.354;2024-02-04T14:25:29;8.27;;;3.60;;
5026;SDS011;2532;52.480;13.354;2024-02-04T14:27:56;11.53;;;3.07;;
5026;SDS011;2532;52.480;13.354;2024-02-04T14:30:23;6.60;;;3.40;;
5026;SDS011;2532;52.480;13.354;2024-02-04T14:32:50;9.60;;;3.50;;
5026;SDS011;2532;52.480;13.354;2024-02-04T14:35:17;11.50;;;3.70;;
5026;SDS011;2532;52.480;13.354;2024-02-04T14:37:44;13.60;;;3.60;;
5026;SDS011;2532;52.480;13.354;2024-02-04T14:40:11;8.90;;;3.70;;
5026;SDS011;2532;52.480;13.354;2024-02-04T14:42:40;8.47;;;3.33;;
5026;SDS011;2532;52.480;13.354;2024-02-04T14:45:08;13.50;;;4.00;;
5026;SDS011;2532;52.480;13.354;2024-02-04T14:47:36;11.37;;;4.00;;
5026;SDS011;2532;52.480;13.354;2024-02-04T14:50:05;9.20;;;3.77;;
5026;SDS011;2532;52.480;13.354;2024-02-04T14:52:32;7.70;;;2.63;;
5026;SDS011;2532;52.480;13.354;2024-02-04T14:54:59;11.50;;;3.60;;
5026;SDS011;2532;52.480;13.354;2024-02-04T14:57:26;7.80;;;3.43;;